sensor_id;sensor_type;location;lat;lon;timestamp;pressure;altitude;pressure_sealevel;temperature;humidity
48027;BME280;50714;49.208;5.364;2023-05-24T00:00:47;99964.66;;;12.74;60.42
48027;BME280;50714;49.208;5.364;2023-05-24T00:10:47;99950.88;;;12.76;60.33
48027;BME280;50714;49.208;5.364;2023-05-24T00:20:47;99938.41;;;12.68;60.17
48027;BME280;50714;49.208;5.364;2023-05-24T00:30:48;99940.44;;;12.59;60.51
48027;BME280;50714;49.208;5.364;2023-05-24T00:40:50;99940.22;;;12.41;60.82
48027;BME280;50714;49.208;5.364;2023-05-24T00:50:50;99937.88;;;12.32;61.03
48027;BME280;50714;49.208;5.364;2023-05-24T01:00:51;99945.50;;;12.08;61.29
48027;BME280;50714;49.208;5.364;2023-05-24T01:11:02;99942.72;;;11.88;62.25
48027;BME280;50714;49.208;5.364;2023-05-24T01:31:47;99953.75;;;11.59;62.12
48027;BME280;50714;49.208;5.364;2023-05-24T01:52:15;99968.78;;;11.34;62.57
48027;BME280;50714;49.208;5.364;2023-05-24T02:02:18;99969.81;;;11.33;62.82
48027;BME280;50714;49.208;5.364;2023-05-24T02:12:19;99971.22;;;11.28;62.99
48027;BME280;50714;49.208;5.364;2023-05-24T02:22:19;99970.09;;;11.16;63.13
48027;BME280;50714;49.208;5.364;2023-05-24T02:32:21;99952.78;;;11.11;62.80
48027;BME280;50714;49.208;5.364;2023-05-24T02:42:21;99960.84;;;11.04;62.98
48027;BME280;50714;49.208;5.364;2023-05-24T02:52:22;99962.34;;;10.85;63.28
48027;BME280;50714;49.208;5.364;2023-05-24T03:02:22;99965.47;;;10.89;63.70
48027;BME280;50714;49.208;5.364;2023-05-24T03:12:22;99967.03;;;10.98;63.27
48027;BME280;50714;49.208;5.364;2023-05-24T03:22:23;99956.88;;;11.00;63.18
48027;BME280;50714;49.208;5.364;2023-05-24T03:32:23;99968.53;;;10.79;62.98
48027;BME280;50714;49.208;5.364;2023-05-24T03:42:23;99953.94;;;10.74;63.04
48027;BME280;50714;49.208;5.364;2023-05-24T03:52:24;99962.97;;;10.45;63.48
48027;BME280;50714;49.208;5.364;2023-05-24T04:02:24;99965.22;;;10.41;63.89
48027;BME280;50714;49.208;5.364;2023-05-24T04:12:25;99961.66;;;10.41;64.16
48027;BME280;50714;49.208;5.364;2023-05-24T04:22:25;99978.97;;;10.46;64.01
48027;BME280;50714;49.208;5.364;2023-05-24T04:32:26;99983.97;;;10.49;64.18
48027;BME280;50714;49.208;5.364;2023-05-24T04:42:29;99988.09;;;10.67;64.03
48027;BME280;50714;49.208;5.364;2023-05-24T04:52:30;99979.13;;;10.81;63.86
48027;BME280;50714;49.208;5.364;2023-05-24T05:02:33;99989.97;;;10.87;63.56
48027;BME280;50714;49.208;5.364;2023-05-24T05:12:33;99977.19;;;10.96;63.44
48027;BME280;50714;49.208;5.364;2023-05-24T05:22:33;99994.16;;;10.90;63.38
48027;BME280;50714;49.208;5.364;2023-05-24T05:32:35;99998.31;;;11.14;63.65
48027;BME280;50714;49.208;5.364;2023-05-24T05:42:35;99994.22;;;11.46;62.51
48027;BME280;50714;49.208;5.364;2023-05-24T05:52:35;100011.06;;;11.76;61.84
48027;BME280;50714;49.208;5.364;2023-05-24T06:02:36;100005.66;;;12.04;61.24
48027;BME280;50714;49.208;5.364;2023-05-24T06:12:36;100008.53;;;12.43;61.30
48027;BME280;50714;49.208;5.364;2023-05-24T06:22:39;100016.16;;;12.94;60.59
48027;BME280;50714;49.208;5.364;2023-05-24T06:32:41;100022.28;;;13.42;59.20
48027;BME280;50714;49.208;5.364;2023-05-24T06:42:41;100032.41;;;14.06;58.48
48027;BME280;50714;49.208;5.364;2023-05-24T06:52:42;100033.00;;;14.66;57.96
48027;BME280;50714;49.208;5.364;2023-05-24T07:02:43;100034.16;;;15.21;56.18
48027;BME280;50714;49.208;5.364;2023-05-24T07:12:43;100030.34;;;15.79;55.75
48027;BME280;50714;49.208;5.364;2023-05-24T07:22:44;100036.28;;;16.12;52.27
48027;BME280;50714;49.208;5.364;2023-05-24T07:32:44;100030.16;;;16.53;52.47
48027;BME280;50714;49.208;5.364;2023-05-24T07:42:44;100038.19;;;16.96;50.03
48027;BME280;50714;49.208;5.364;2023-05-24T07:52:46;100052.50;;;17.22;49.39
48027;BME280;50714;49.208;5.364;2023-05-24T08:02:47;100055.81;;;17.77;47.69
48027;BME280;50714;49.208;5.364;2023-05-24T08:12:48;100056.97;;;18.28;47.46
48027;BME280;50714;49.208;5.364;2023-05-24T08:22:50;100065.09;;;19.03;45.83
48027;BME280;50714;49.208;5.364;2023-05-24T08:32:50;100079.97;;;20.02;44.71
48027;BME280;50714;49.208;5.364;2023-05-24T08:42:51;100077.75;;;21.25;42.33
48027;BME280;50714;49.208;5.364;2023-05-24T08:52:53;100062.25;;;23.35;42.85
48027;BME280;50714;49.208;5.364;2023-05-24T09:02:55;100065.25;;;27.44;37.70
48027;BME280;50714;49.208;5.364;2023-05-24T09:12:57;100058.97;;;29.05;33.72
48027;BME280;50714;49.208;5.364;2023-05-24T09:22:57;100043.84;;;30.62;32.63
48027;BME280;50714;49.208;5.364;2023-05-24T09:32:59;100043.00;;;31.36;27.25
48027;BME280;50714;49.208;5.364;2023-05-24T09:43:07;100047.22;;;31.07;23.37
48027;BME280;50714;49.208;5.364;2023-05-24T09:53:08;100039.47;;;30.78;27.60
48027;BME280;50714;49.208;5.364;2023-05-24T10:03:10;100043.34;;;31.34;26.41
48027;BME280;50714;49.208;5.364;2023-05-24T10:13:11;100041.34;;;31.26;26.43
48027;BME280;50714;49.208;5.364;2023-05-24T10:23:19;100031.28;;;30.34;24.46
48027;BME280;50714;49.208;5.364;2023-05-24T10:33:21;100018.38;;;30.46;25.05
48027;BME280;50714;49.208;5.364;2023-05-24T10:43:23;100022.63;;;30.92;25.60
48027;BME280;50714;49.208;5.364;2023-05-24T10:53:26;100010.09;;;31.93;24.82
48027;BME280;50714;49.208;5.364;2023-05-24T11:03:32;99998.03;;;32.86;21.35
48027;BME280;50714;49.208;5.364;2023-05-24T11:13:32;100005.19;;;32.66;23.69
48027;BME280;50714;49.208;5.364;2023-05-24T11:23:33;99990.97;;;32.21;23.07
48027;BME280;50714;49.208;5.364;2023-05-24T11:33:33;99984.94;;;33.19;22.94
48027;BME280;50714;49.208;5.364;2023-05-24T11:43:34;99975.94;;;32.64;22.51
48027;BME280;50714;49.208;5.364;2023-05-24T11:53:34;99967.50;;;30.98;22.58
48027;BME280;50714;49.208;5.364;2023-05-24T12:03:34;99956.69;;;28.93;23.66
48027;BME280;50714;49.208;5.364;2023-05-24T12:13:35;99939.75;;;26.26;25.54
48027;BME280;50714;49.208;5.364;2023-05-24T12:23:37;99942.16;;;24.44;27.04
48027;BME280;50714;49.208;5.364;2023-05-24T12:33:38;99928.06;;;23.45;27.74
48027;BME280;50714;49.208;5.364;2023-05-24T12:43:39;99921.78;;;23.04;29.29
48027;BME280;50714;49.208;5.364;2023-05-24T12:53:39;99913.19;;;22.65;29.61
48027;BME280;50714;49.208;5.364;2023-05-24T13:03:40;99914.41;;;22.17;30.10
48027;BME280;50714;49.208;5.364;2023-05-24T13:13:41;99903.50;;;22.48;31.22
48027;BME280;50714;49.208;5.364;2023-05-24T13:23:43;99893.31;;;22.43;30.99
48027;BME280;50714;49.208;5.364;2023-05-24T13:33:45;99871.06;;;22.60;31.58
48027;BME280;50714;49.208;5.364;2023-05-24T13:43:46;99875.97;;;22.48;31.25
48027;BME280;50714;49.208;5.364;2023-05-24T13:53:46;99866.41;;;22.65;32.09
48027;BME280;50714;49.208;5.364;2023-05-24T14:03:47;99858.19;;;23.06;31.99
48027;BME280;50714;49.208;5.364;2023-05-24T14:13:47;99851.03;;;22.85;31.03
48027;BME280;50714;49.208;5.364;2023-05-24T14:23:48;99849.84;;;22.45;31.69
48027;BME280;50714;49.208;5.364;2023-05-24T14:33:48;99841.03;;;22.33;32.10
48027;BME280;50714;49.208;5.364;2023-05-24T14:43:48;99840.72;;;22.14;31.89
48027;BME280;50714;49.208;5.364;2023-05-24T14:53:50;99823.25;;;21.78;32.56
48027;BME280;50714;49.208;5.364;2023-05-24T15:03:50;99830.72;;;21.98;32.37
48027;BME280;50714;49.208;5.364;2023-05-24T15:13:50;99838.75;;;22.04;32.41
48027;BME280;50714;49.208;5.364;2023-05-24T15:23:54;99839.63;;;22.15;32.74
48027;BME280;50714;49.208;5.364;2023-05-24T15:33:54;99833.75;;;21.91;32.76
48027;BME280;50714;49.208;5.364;2023-05-24T15:43:55;99841.22;;;21.43;33.03
48027;BME280;50714;49.208;5.364;2023-05-24T15:53:55;99829.09;;;21.02;33.71
48027;BME280;50714;49.208;5.364;2023-05-24T16:03:56;99823.19;;;20.79;34.44
48027;BME280;50714;49.208;5.364;2023-05-24T16:13:56;99835.25;;;20.77;34.16
48027;BME280;50714;49.208;5.364;2023-05-24T16:23:56;99831.84;;;20.65;34.52
48027;BME280;50714;49.208;5.364;2023-05-24T16:33:57;99822.88;;;20.43;35.14
48027;BME280;50714;49.208;5.364;2023-05-24T16:43:58;99822.34;;;20.19;35.05
48027;BME280;50714;49.208;5.364;2023-05-24T16:53:58;99824.41;;;19.85;35.72
48027;BME280;50714;49.208;5.364;2023-05-24T17:03:58;99831.56;;;19.64;35.90
48027;BME280;50714;49.208;5.364;2023-05-24T17:13:59;99838.06;;;19.41;36.39
48027;BME280;50714;49.208;5.364;2023-05-24T17:23:59;99838.88;;;19.03;36.06
48027;BME280;50714;49.208;5.364;2023-05-24T17:33:59;99836.16;;;18.70;36.08
48027;BME280;50714;49.208;5.364;2023-05-24T17:44:00;99851.59;;;18.48;36.44
48027;BME280;50714;49.208;5.364;2023-05-24T17:54:00;99848.69;;;18.37;36.39
48027;BME280;50714;49.208;5.364;2023-05-24T18:04:00;99871.16;;;17.99;36.69
48027;BME280;50714;49.208;5.364;2023-05-24T18:14:01;99875.38;;;17.79;36.84
48027;BME280;50714;49.208;5.364;2023-05-24T18:24:02;99890.09;;;17.54;37.54
48027;BME280;50714;49.208;5.364;2023-05-24T18:34:03;99897.47;;;17.30;38.33
48027;BME280;50714;49.208;5.364;2023-05-24T18:44:03;99911.72;;;17.21;38.76
48027;BME280;50714;49.208;5.364;2023-05-24T18:54:04;99921.19;;;16.95;39.18
48027;BME280;50714;49.208;5.364;2023-05-24T19:04:04;99931.47;;;16.93;39.82
48027;BME280;50714;49.208;5.364;2023-05-24T19:14:05;99935.13;;;16.87;39.80
48027;BME280;50714;49.208;5.364;2023-05-24T19:24:05;99945.06;;;16.69;40.27
48027;BME280;50714;49.208;5.364;2023-05-24T19:34:06;99952.03;;;16.65;40.64
48027;BME280;50714;49.208;5.364;2023-05-24T19:44:07;99960.19;;;16.65;40.73
48027;BME280;50714;49.208;5.364;2023-05-24T19:54:07;99965.94;;;16.57;41.04
48027;BME280;50714;49.208;5.364;2023-05-24T20:04:11;99978.69;;;16.45;41.14
48027;BME280;50714;49.208;5.364;2023-05-24T20:14:12;99990.94;;;16.36;41.66
48027;BME280;50714;49.208;5.364;2023-05-24T20:24:12;99998.06;;;16.37;42.02
48027;BME280;50714;49.208;5.364;2023-05-24T20:34:12;99999.53;;;16.21;42.36
48027;BME280;50714;49.208;5.364;2023-05-24T20:44:13;99998.97;;;16.13;42.72
48027;BME280;50714;49.208;5.364;2023-05-24T20:54:13;100000.72;;;15.89;42.95
48027;BME280;50714;49.208;5.364;2023-05-24T21:04:14;100008.34;;;15.55;43.41
48027;BME280;50714;49.208;5.364;2023-05-24T21:14:14;99996.91;;;15.47;44.10
48027;BME280;50714;49.208;5.364;2023-05-24T21:24:14;100014.34;;;15.39;44.61
48027;BME280;50714;49.208;5.364;2023-05-24T21:34:15;100017.00;;;15.21;45.15
48027;BME280;50714;49.208;5.364;2023-05-24T21:44:15;100010.03;;;15.00;45.63
48027;BME280;50714;49.208;5.364;2023-05-24T21:54:16;100009.59;;;14.72;46.29
48027;BME280;50714;49.208;5.364;2023-05-24T22:04:18;100008.66;;;14.46;46.71
48027;BME280;50714;49.208;5.364;2023-05-24T22:14:19;100007.75;;;14.14;47.10
48027;BME280;50714;49.208;5.364;2023-05-24T22:24:19;100000.25;;;13.96;47.91
48027;BME280;50714;49.208;5.364;2023-05-24T22:34:29;100011.78;;;13.79;50.23
48027;BME280;50714;49.208;5.364;2023-05-24T22:44:30;100002.84;;;13.52;48.61
48027;BME280;50714;49.208;5.364;2023-05-24T22:54:30;100004.94;;;13.37;49.09
48027;BME280;50714;49.208;5.364;2023-05-24T23:04:31;100002.03;;;13.38;49.57
48027;BME280;50714;49.208;5.364;2023-05-24T23:14:36;99998.06;;;13.41;49.99
48027;BME280;50714;49.208;5.364;2023-05-24T23:24:40;99980.75;;;13.28;50.40
48027;BME280;50714;49.208;5.364;2023-05-24T23:34:43;99981.78;;;13.27;50.51
48027;BME280;50714;49.208;5.364;2023-05-24T23:44:43;99988.91;;;13.22;50.38
48027;BME280;50714;49.208;5.364;2023-05-24T23:54:44;99987.66;;;13.18;50.41
